Albuquerque International Sunport, NM

10:47 PM MDT on September 01, 2014 (GMT -0600)
Santa Fe Municipal | Change Station
CLOSE
Current Station
Airport
Location: Santa Fe,
Elevation: 6345 ft
Nearby Weather Stations

Elev 6345 ft 35.62 °N, 106.09 °W | Updated 54 minutes ago

Clear
Clear
71 °F
Feels Like 71 °F
N
12
Wind Variable Wind from NNE

Today
High -- | Low -- °F
--% Chance of Precip.
Yesterday
High -- | Low -- °F
Precip. -- in
6:39 AM 7:33 PM
Waxing Crescent, 47% visible
Pressure 29.81 in
Visibility 10.0 miles
Clouds Clear
Dew Point 32 °F
Humidity 24%
Rainfall 0.00 in
Snow Depth Not available.
UV 0 out of 12
Pollen 8.90 out of 12
Air Quality Not available.
Flu Activity Not available.
METAR KSAF 020353Z AUTO 02010KT 10SM CLR 22/00 A3014 RMK AO2 SLP092 T02170000

More Conditions Fewer Conditions

Pressure 29.81 in
Visibility 10.0 miles
Clouds Clear
Dew Point 32 °F
Humidity 24%
Rainfall 0.00 in
Snow Depth Not available.
UV 0 out of 12
Pollen 8.90 out of 12
Air Quality Not available.
Flu Activity Not available.
METAR KSAF 020353Z AUTO 02010KT 10SM CLR 22/00 A3014 RMK AO2 SLP092 T02170000

More Conditions Fewer Conditions

10-Day Weather Forecast

Almanac

Astronomy

Sep. 01, 2014 Rise Set
Actual Time 6:39 AM MDT 7:33 PM MDT
Civil Twilight 6:13 AM MDT 7:58 PM MDT
Nautical Twilight 5:42 AM MDT 8:29 PM MDT
Astronomical Twilight 5:11 AM MDT 9:00 PM MDT
Moon 1:12 PM MDT (9/1) 11:52 PM MDT (9/1)
Length of Visible Light 13h 45m
Length of Day
12h 53m
Tomorrow will be 2m 7s shorter.
Waxing Crescent, 47% of the Moon is Illuminated
Sep 2
Waxing Crescent
Sep 2
First Quarter
Sep 8
Full
Sep 15
Last Quarter
Sep 24
New

Yesterday's Extremes

State Highs State Lows

Community

WunderPhotos

Upload Photos

1,749,573 photos uploaded!

WunderBlogs® & News

Nearby

Snow Depth

Station Depth Elevation
Quemazon 1 in 9500 ft
Senorita Divide #2 0 in 8600 ft
Wesner Springs 2 in 11120 ft
Rice Park 0 in 8460 ft
Gallegos Peak 0 in 9800 ft

Earthquake Activity

City Distance Mag. Time & Date
No recent earthquake activity has been reported nearby.
Minimum magnitude displayed is 2.5.

Coastal Water Temperatures

Place Temperature
No Stations Reporting

Nearby Weather Stations